Chance — 2EGH2 — position and weather

sailwx.info

Track history (hours):
 
Tides and Currents Weather Stations Pressure Air Temp Water Temp Dewpoint Dewpoint Depression Visibility Wind Speed Wind Dir Waves Ship Positions

Chance

Last reported at 2017-Oct-26 22:15 UTC. Time now 2017-Nov-22 22:09 UTC.
Position N 48°50' W 001°36'.
Warning: this ship's position is 26 days out of date.

Length 10 m.

Type: Sailing vessel. MMSI: 235094057.

Date/timePositionNaut miles runAvg speedWind from/ knotsBaromVisibWave heightAir tempDewpointWater temp
2017-Oct-26 22:15N 48°50' W 001°36'1 3.0
2017-Oct-26 21:55N 48°50' W 001°37'6 5.3
2017-Oct-26 20:44N 48°54' W 001°44'1 6.1
2017-Oct-26 20:30N 48°55' W 001°45'4 6.4
2017-Oct-26 19:51N 48°58' W 001°50'2 7.1
2017-Oct-26 19:30N 48°60' W 001°52'4 7.4
2017-Oct-26 19:00N 49°03' W 001°57'4 7.6
2017-Oct-26 18:30N 49°05' W 002°01'4 7.5
2017-Oct-26 17:57N 49°08' W 002°05'3 5.1
2017-Oct-26 17:27N 49°10' W 002°07'  
Track history (hours):
 
Tides and Currents Weather Stations Pressure Air Temp Water Temp Dewpoint Dewpoint Depression Visibility Wind Speed Wind Dir Waves Ship Positions

Chance

Last reported at 2017-Oct-26 22:15 UTC. Time now 2017-Nov-22 22:09 UTC.
Position N 48°50' W 001°36'.
Warning: this ship's position is 26 days out of date.

Length 10 m.

Type: Sailing vessel. MMSI: 235094057.

Date/timePositionNaut miles runAvg speedWind from/ knotsBaromVisibWave heightAir tempDewpointWater temp
2017-Oct-26 22:15N 48°50' W 001°36'1 3.0
2017-Oct-26 21:55N 48°50' W 001°37'6 5.3
2017-Oct-26 20:44N 48°54' W 001°44'1 6.1
2017-Oct-26 20:30N 48°55' W 001°45'4 6.4
2017-Oct-26 19:51N 48°58' W 001°50'2 7.1
2017-Oct-26 19:30N 48°60' W 001°52'4 7.4
2017-Oct-26 19:00N 49°03' W 001°57'4 7.6
2017-Oct-26 18:30N 49°05' W 002°01'4 7.5
2017-Oct-26 17:57N 49°08' W 002°05'3 5.1
2017-Oct-26 17:27N 49°10' W 002°07'  

Dump ship's entire track history